sensor_id;sensor_type;location;lat;lon;timestamp;temperature;humidity
16521;DHT22;8373;48.110;11.522;2022-09-16T04:03:20;17.20;84.00
16521;DHT22;8373;48.110;11.522;2022-09-16T04:05:51;17.20;84.40
16521;DHT22;8373;48.110;11.522;2022-09-16T04:08:18;17.20;84.50
16521;DHT22;8373;48.110;11.522;2022-09-16T04:10:53;17.30;84.70
16521;DHT22;8373;48.110;11.522;2022-09-16T04:13:19;17.30;84.20
16521;DHT22;8373;48.110;11.522;2022-09-16T04:15:46;17.20;83.80
16521;DHT22;8373;48.110;11.522;2022-09-16T04:18:13;17.20;84.20
16521;DHT22;8373;48.110;11.522;2022-09-16T04:20:42;17.10;84.40
16521;DHT22;8373;48.110;11.522;2022-09-16T04:23:09;17.10;84.50
16521;DHT22;8373;48.110;11.522;2022-09-16T04:25:36;17.10;84.50
16521;DHT22;8373;48.110;11.522;2022-09-16T04:28:03;17.10;84.60
16521;DHT22;8373;48.110;11.522;2022-09-16T04:30:30;17.10;84.50
16521;DHT22;8373;48.110;11.522;2022-09-16T04:32:57;17.00;84.80
16521;DHT22;8373;48.110;11.522;2022-09-16T04:35:24;17.10;85.20
16521;DHT22;8373;48.110;11.522;2022-09-16T04:37:52;17.20;85.20
16521;DHT22;8373;48.110;11.522;2022-09-16T04:40:19;17.20;84.80
16521;DHT22;8373;48.110;11.522;2022-09-16T04:42:49;17.20;84.60
16521;DHT22;8373;48.110;11.522;2022-09-16T04:45:17;17.20;84.70
16521;DHT22;8373;48.110;11.522;2022-09-16T04:47:44;17.20;84.50
16521;DHT22;8373;48.110;11.522;2022-09-16T04:50:11;17.10;84.30
16521;DHT22;8373;48.110;11.522;2022-09-16T04:52:38;17.10;84.30
16521;DHT22;8373;48.110;11.522;2022-09-16T04:55:07;17.10;84.50
16521;DHT22;8373;48.110;11.522;2022-09-16T04:57:34;17.20;84.80
16521;DHT22;8373;48.110;11.522;2022-09-16T05:00:02;17.20;84.40
16521;DHT22;8373;48.110;11.522;2022-09-16T05:02:30;17.10;84.10
16521;DHT22;8373;48.110;11.522;2022-09-16T05:04:56;17.00;84.30
16521;DHT22;8373;48.110;11.522;2022-09-16T05:07:23;16.90;84.40
16521;DHT22;8373;48.110;11.522;2022-09-16T05:09:50;17.00;85.10
16521;DHT22;8373;48.110;11.522;2022-09-16T05:12:19;17.00;85.00
16521;DHT22;8373;48.110;11.522;2022-09-16T05:14:46;17.00;84.90
16521;DHT22;8373;48.110;11.522;2022-09-16T05:17:13;17.00;84.60
16521;DHT22;8373;48.110;11.522;2022-09-16T05:19:40;17.00;84.30
16521;DHT22;8373;48.110;11.522;2022-09-16T05:22:07;16.90;84.60
16521;DHT22;8373;48.110;11.522;2022-09-16T05:24:34;17.00;85.00
16521;DHT22;8373;48.110;11.522;2022-09-16T05:27:02;17.10;85.10
16521;DHT22;8373;48.110;11.522;2022-09-16T05:29:30;17.20;85.10
16521;DHT22;8373;48.110;11.522;2022-09-16T05:31:57;17.20;84.80
16521;DHT22;8373;48.110;11.522;2022-09-16T05:34:24;17.20;84.20
16521;DHT22;8373;48.110;11.522;2022-09-16T05:36:53;17.20;84.20
16521;DHT22;8373;48.110;11.522;2022-09-16T05:39:21;17.30;84.20
16521;DHT22;8373;48.110;11.522;2022-09-16T05:41:51;17.30;84.10
16521;DHT22;8373;48.110;11.522;2022-09-16T05:44:18;17.40;84.20
16521;DHT22;8373;48.110;11.522;2022-09-16T05:46:46;17.40;84.10
16521;DHT22;8373;48.110;11.522;2022-09-16T05:49:13;17.40;83.90
16521;DHT22;8373;48.110;11.522;2022-09-16T05:51:45;17.30;84.10
16521;DHT22;8373;48.110;11.522;2022-09-16T05:54:12;17.30;84.40
16521;DHT22;8373;48.110;11.522;2022-09-16T05:56:39;17.20;84.20
16521;DHT22;8373;48.110;11.522;2022-09-16T05:59:09;17.20;84.40
16521;DHT22;8373;48.110;11.522;2022-09-16T06:01:36;17.20;84.70
16521;DHT22;8373;48.110;11.522;2022-09-16T06:04:06;17.20;84.60
16521;DHT22;8373;48.110;11.522;2022-09-16T06:06:35;17.20;84.70
16521;DHT22;8373;48.110;11.522;2022-09-16T06:09:06;17.30;84.70
16521;DHT22;8373;48.110;11.522;2022-09-16T06:11:36;17.30;84.40
16521;DHT22;8373;48.110;11.522;2022-09-16T06:14:04;17.40;84.80
16521;DHT22;8373;48.110;11.522;2022-09-16T06:16:32;17.40;84.40
16521;DHT22;8373;48.110;11.522;2022-09-16T06:19:01;17.30;84.50
16521;DHT22;8373;48.110;11.522;2022-09-16T06:21:29;17.40;84.60
16521;DHT22;8373;48.110;11.522;2022-09-16T06:23:56;17.40;84.20
16521;DHT22;8373;48.110;11.522;2022-09-16T06:26:25;17.40;84.00
16521;DHT22;8373;48.110;11.522;2022-09-16T06:28:53;17.40;84.20
16521;DHT22;8373;48.110;11.522;2022-09-16T06:31:22;17.40;84.40
16521;DHT22;8373;48.110;11.522;2022-09-16T06:33:51;17.50;84.10
16521;DHT22;8373;48.110;11.522;2022-09-16T06:36:20;17.50;84.10
16521;DHT22;8373;48.110;11.522;2022-09-16T06:38:50;17.40;83.80
16521;DHT22;8373;48.110;11.522;2022-09-16T06:41:19;17.40;84.00
16521;DHT22;8373;48.110;11.522;2022-09-16T06:43:46;17.40;83.60
16521;DHT22;8373;48.110;11.522;2022-09-16T06:46:17;17.40;84.00
16521;DHT22;8373;48.110;11.522;2022-09-16T06:48:45;17.50;84.50
16521;DHT22;8373;48.110;11.522;2022-09-16T06:51:15;17.50;84.60
16521;DHT22;8373;48.110;11.522;2022-09-16T06:53:43;17.50;84.60
16521;DHT22;8373;48.110;11.522;2022-09-16T06:56:14;17.40;84.10
16521;DHT22;8373;48.110;11.522;2022-09-16T06:58:43;17.50;84.50
16521;DHT22;8373;48.110;11.522;2022-09-16T07:01:13;17.50;84.70
16521;DHT22;8373;48.110;11.522;2022-09-16T07:03:42;17.50;84.40
16521;DHT22;8373;48.110;11.522;2022-09-16T07:06:10;17.50;84.30
16521;DHT22;8373;48.110;11.522;2022-09-16T07:08:38;17.60;84.30
16521;DHT22;8373;48.110;11.522;2022-09-16T07:11:07;17.60;84.00
16521;DHT22;8373;48.110;11.522;2022-09-16T07:13:35;17.70;83.90
16521;DHT22;8373;48.110;11.522;2022-09-16T07:16:04;17.70;84.00
16521;DHT22;8373;48.110;11.522;2022-09-16T07:18:32;17.80;83.80
16521;DHT22;8373;48.110;11.522;2022-09-16T07:21:00;17.80;83.50
16521;DHT22;8373;48.110;11.522;2022-09-16T07:23:29;17.80;83.30
16521;DHT22;8373;48.110;11.522;2022-09-16T07:26:01;17.80;82.80
16521;DHT22;8373;48.110;11.522;2022-09-16T07:28:28;17.80;83.20
16521;DHT22;8373;48.110;11.522;2022-09-16T07:30:59;17.80;82.40
16521;DHT22;8373;48.110;11.522;2022-09-16T07:33:26;17.80;82.40
16521;DHT22;8373;48.110;11.522;2022-09-16T07:35:57;17.80;82.50
16521;DHT22;8373;48.110;11.522;2022-09-16T07:38:24;17.70;82.00
16521;DHT22;8373;48.110;11.522;2022-09-16T07:40:51;17.80;82.40
16521;DHT22;8373;48.110;11.522;2022-09-16T07:43:18;17.80;82.20
16521;DHT22;8373;48.110;11.522;2022-09-16T07:45:46;17.80;81.90
16521;DHT22;8373;48.110;11.522;2022-09-16T07:48:14;17.90;82.20
16521;DHT22;8373;48.110;11.522;2022-09-16T07:50:41;17.80;82.40
16521;DHT22;8373;48.110;11.522;2022-09-16T07:53:08;17.80;82.10
16521;DHT22;8373;48.110;11.522;2022-09-16T07:55:35;17.80;81.70
16521;DHT22;8373;48.110;11.522;2022-09-16T07:58:01;17.80;81.90
16521;DHT22;8373;48.110;11.522;2022-09-16T08:00:29;17.80;82.10
16521;DHT22;8373;48.110;11.522;2022-09-16T08:02:56;17.90;81.60
16521;DHT22;8373;48.110;11.522;2022-09-16T08:05:25;17.70;80.90
16521;DHT22;8373;48.110;11.522;2022-09-16T08:07:52;17.60;81.40
16521;DHT22;8373;48.110;11.522;2022-09-16T08:10:18;17.70;82.00
16521;DHT22;8373;48.110;11.522;2022-09-16T08:12:46;17.70;81.90
16521;DHT22;8373;48.110;11.522;2022-09-16T08:15:13;17.70;82.20
16521;DHT22;8373;48.110;11.522;2022-09-16T08:17:40;17.80;82.30
16521;DHT22;8373;48.110;11.522;2022-09-16T08:20:08;17.80;82.30
16521;DHT22;8373;48.110;11.522;2022-09-16T08:22:36;17.80;81.30
16521;DHT22;8373;48.110;11.522;2022-09-16T08:25:04;17.80;81.60
16521;DHT22;8373;48.110;11.522;2022-09-16T08:27:34;17.90;81.60
16521;DHT22;8373;48.110;11.522;2022-09-16T08:30:02;17.90;81.60
16521;DHT22;8373;48.110;11.522;2022-09-16T08:32:29;18.00;81.40
16521;DHT22;8373;48.110;11.522;2022-09-16T08:34:56;17.90;81.10
16521;DHT22;8373;48.110;11.522;2022-09-16T08:37:23;17.90;80.80
16521;DHT22;8373;48.110;11.522;2022-09-16T08:39:51;17.80;80.80
16521;DHT22;8373;48.110;11.522;2022-09-16T08:42:30;17.90;81.10
16521;DHT22;8373;48.110;11.522;2022-09-16T08:45:17;17.90;81.10
16521;DHT22;8373;48.110;11.522;2022-09-16T08:48:03;17.80;81.10
16521;DHT22;8373;48.110;11.522;2022-09-16T08:50:34;17.70;81.40
16521;DHT22;8373;48.110;11.522;2022-09-16T08:53:08;17.70;81.70
16521;DHT22;8373;48.110;11.522;2022-09-16T08:55:40;17.70;81.80
16521;DHT22;8373;48.110;11.522;2022-09-16T08:58:14;17.70;81.60
16521;DHT22;8373;48.110;11.522;2022-09-16T09:00:43;17.80;81.90
16521;DHT22;8373;48.110;11.522;2022-09-16T09:03:24;17.90;81.90
16521;DHT22;8373;48.110;11.522;2022-09-16T09:05:55;17.90;81.30
16521;DHT22;8373;48.110;11.522;2022-09-16T09:08:34;18.00;81.10
16521;DHT22;8373;48.110;11.522;2022-09-16T09:11:14;18.00;81.20
16521;DHT22;8373;48.110;11.522;2022-09-16T09:13:57;18.00;81.20
16521;DHT22;8373;48.110;11.522;2022-09-16T09:16:36;18.10;81.80
16521;DHT22;8373;48.110;11.522;2022-09-16T09:19:20;18.20;81.70
16521;DHT22;8373;48.110;11.522;2022-09-16T09:21:57;18.20;81.00
16521;DHT22;8373;48.110;11.522;2022-09-16T09:24:43;18.10;80.80
16521;DHT22;8373;48.110;11.522;2022-09-16T09:27:16;18.10;81.40
16521;DHT22;8373;48.110;11.522;2022-09-16T09:29:56;18.10;81.70
16521;DHT22;8373;48.110;11.522;2022-09-16T09:32:32;18.10;82.20
16521;DHT22;8373;48.110;11.522;2022-09-16T09:35:13;18.20;82.80
16521;DHT22;8373;48.110;11.522;2022-09-16T09:38:01;18.30;81.90
16521;DHT22;8373;48.110;11.522;2022-09-16T09:40:34;18.30;82.40
16521;DHT22;8373;48.110;11.522;2022-09-16T09:43:09;18.40;82.20
16521;DHT22;8373;48.110;11.522;2022-09-16T09:45:42;18.40;82.50
16521;DHT22;8373;48.110;11.522;2022-09-16T09:48:16;18.40;83.20
16521;DHT22;8373;48.110;11.522;2022-09-16T09:50:45;18.50;83.70
16521;DHT22;8373;48.110;11.522;2022-09-16T09:53:17;18.50;83.50
16521;DHT22;8373;48.110;11.522;2022-09-16T09:55:46;18.50;83.20
16521;DHT22;8373;48.110;11.522;2022-09-16T09:58:23;18.50;83.80
16521;DHT22;8373;48.110;11.522;2022-09-16T10:00:52;18.50;83.50
16521;DHT22;8373;48.110;11.522;2022-09-16T10:03:20;18.50;83.20
16521;DHT22;8373;48.110;11.522;2022-09-16T10:05:48;18.50;83.20
16521;DHT22;8373;48.110;11.522;2022-09-16T10:08:23;18.50;83.40
16521;DHT22;8373;48.110;11.522;2022-09-16T10:10:52;18.50;83.80
16521;DHT22;8373;48.110;11.522;2022-09-16T10:13:22;18.60;83.70
16521;DHT22;8373;48.110;11.522;2022-09-16T10:15:52;18.50;83.40
16521;DHT22;8373;48.110;11.522;2022-09-16T10:18:23;18.50;83.20
16521;DHT22;8373;48.110;11.522;2022-09-16T10:20:58;18.50;83.20
16521;DHT22;8373;48.110;11.522;2022-09-16T10:23:26;18.50;84.00
16521;DHT22;8373;48.110;11.522;2022-09-16T10:26:13;18.50;84.80
16521;DHT22;8373;48.110;11.522;2022-09-16T10:28:52;18.50;84.10
16521;DHT22;8373;48.110;11.522;2022-09-16T10:31:20;18.50;84.80
16521;DHT22;8373;48.110;11.522;2022-09-16T10:33:47;18.40;84.00
16521;DHT22;8373;48.110;11.522;2022-09-16T10:36:18;18.40;84.40
16521;DHT22;8373;48.110;11.522;2022-09-16T10:38:50;18.30;84.60
16521;DHT22;8373;48.110;11.522;2022-09-16T10:41:21;18.40;84.70
16521;DHT22;8373;48.110;11.522;2022-09-16T10:43:52;18.40;85.20
16521;DHT22;8373;48.110;11.522;2022-09-16T10:46:20;18.40;85.40
16521;DHT22;8373;48.110;11.522;2022-09-16T10:48:48;18.40;85.70
16521;DHT22;8373;48.110;11.522;2022-09-16T10:51:22;18.40;84.40
16521;DHT22;8373;48.110;11.522;2022-09-16T10:53:54;18.30;83.80
16521;DHT22;8373;48.110;11.522;2022-09-16T10:56:23;18.30;83.80
16521;DHT22;8373;48.110;11.522;2022-09-16T10:59:02;18.10;83.90
16521;DHT22;8373;48.110;11.522;2022-09-16T11:01:36;17.90;85.10
16521;DHT22;8373;48.110;11.522;2022-09-16T11:04:30;18.00;86.20
16521;DHT22;8373;48.110;11.522;2022-09-16T11:07:11;18.10;87.00
16521;DHT22;8373;48.110;11.522;2022-09-16T11:09:48;18.20;86.60
16521;DHT22;8373;48.110;11.522;2022-09-16T11:12:32;18.40;87.30
16521;DHT22;8373;48.110;11.522;2022-09-16T11:15:10;18.40;85.90
16521;DHT22;8373;48.110;11.522;2022-09-16T11:17:52;18.10;84.50
16521;DHT22;8373;48.110;11.522;2022-09-16T11:20:48;18.30;83.00
16521;DHT22;8373;48.110;11.522;2022-09-16T11:23:26;18.40;78.30
16521;DHT22;8373;48.110;11.522;2022-09-16T11:26:02;17.90;78.10
16521;DHT22;8373;48.110;11.522;2022-09-16T11:28:53;17.50;79.20
16521;DHT22;8373;48.110;11.522;2022-09-16T11:31:33;17.40;79.80
16521;DHT22;8373;48.110;11.522;2022-09-16T11:34:08;17.10;81.20
16521;DHT22;8373;48.110;11.522;2022-09-16T11:36:42;17.00;82.10
16521;DHT22;8373;48.110;11.522;2022-09-16T11:39:28;17.00;82.70
16521;DHT22;8373;48.110;11.522;2022-09-16T11:42:05;17.10;82.90
16521;DHT22;8373;48.110;11.522;2022-09-16T11:44:40;17.20;82.90
16521;DHT22;8373;48.110;11.522;2022-09-16T11:47:30;17.20;83.50
16521;DHT22;8373;48.110;11.522;2022-09-16T11:50:11;17.20;83.30
16521;DHT22;8373;48.110;11.522;2022-09-16T11:52:56;16.80;81.80
16521;DHT22;8373;48.110;11.522;2022-09-16T11:55:35;16.60;82.10
16521;DHT22;8373;48.110;11.522;2022-09-16T11:58:16;16.50;82.90
16521;DHT22;8373;48.110;11.522;2022-09-16T12:00:45;16.40;82.50
16521;DHT22;8373;48.110;11.522;2022-09-16T12:03:21;16.40;82.30
16521;DHT22;8373;48.110;11.522;2022-09-16T12:05:54;16.20;82.50
16521;DHT22;8373;48.110;11.522;2022-09-16T12:08:30;16.10;83.40
16521;DHT22;8373;48.110;11.522;2022-09-16T12:11:01;16.10;84.20
16521;DHT22;8373;48.110;11.522;2022-09-16T12:13:34;16.20;85.20
16521;DHT22;8373;48.110;11.522;2022-09-16T12:16:05;16.20;84.90
16521;DHT22;8373;48.110;11.522;2022-09-16T12:18:38;16.20;84.50
16521;DHT22;8373;48.110;11.522;2022-09-16T12:21:11;16.20;85.70
16521;DHT22;8373;48.110;11.522;2022-09-16T12:23:43;16.10;84.70
16521;DHT22;8373;48.110;11.522;2022-09-16T12:26:15;16.20;85.20
16521;DHT22;8373;48.110;11.522;2022-09-16T12:28:48;16.30;84.30
16521;DHT22;8373;48.110;11.522;2022-09-16T12:31:18;16.50;84.50
16521;DHT22;8373;48.110;11.522;2022-09-16T12:33:51;16.60;83.60
16521;DHT22;8373;48.110;11.522;2022-09-16T12:36:23;16.70;83.50
16521;DHT22;8373;48.110;11.522;2022-09-16T12:38:51;16.80;83.50
16521;DHT22;8373;48.110;11.522;2022-09-16T12:44:54;16.90;82.90
16521;DHT22;8373;48.110;11.522;2022-09-16T12:50:44;16.90;83.10
16521;DHT22;8373;48.110;11.522;2022-09-16T12:53:50;16.80;82.40
16521;DHT22;8373;48.110;11.522;2022-09-16T12:56:37;16.80;82.50
16521;DHT22;8373;48.110;11.522;2022-09-16T12:59:25;16.80;82.30
16521;DHT22;8373;48.110;11.522;2022-09-16T13:01:58;16.80;82.40
16521;DHT22;8373;48.110;11.522;2022-09-16T13:04:29;16.80;82.80
16521;DHT22;8373;48.110;11.522;2022-09-16T13:06:59;16.70;81.90
16521;DHT22;8373;48.110;11.522;2022-09-16T13:09:29;16.70;81.90
16521;DHT22;8373;48.110;11.522;2022-09-16T13:12:00;16.70;81.70
16521;DHT22;8373;48.110;11.522;2022-09-16T13:14:29;16.70;81.30
16521;DHT22;8373;48.110;11.522;2022-09-16T13:16:59;16.80;81.40
16521;DHT22;8373;48.110;11.522;2022-09-16T13:19:34;16.70;81.10
16521;DHT22;8373;48.110;11.522;2022-09-16T13:22:16;16.60;80.40
16521;DHT22;8373;48.110;11.522;2022-09-16T13:24:47;16.60;81.20
16521;DHT22;8373;48.110;11.522;2022-09-16T13:27:30;16.60;81.60
16521;DHT22;8373;48.110;11.522;2022-09-16T13:30:27;16.60;81.50
16521;DHT22;8373;48.110;11.522;2022-09-16T13:33:20;16.70;81.70
16521;DHT22;8373;48.110;11.522;2022-09-16T13:36:00;16.80;81.90
16521;DHT22;8373;48.110;11.522;2022-09-16T13:38:39;16.90;82.00
16521;DHT22;8373;48.110;11.522;2022-09-16T13:41:09;17.00;82.10
16521;DHT22;8373;48.110;11.522;2022-09-16T13:43:49;16.90;82.30
16521;DHT22;8373;48.110;11.522;2022-09-16T13:46:29;17.00;80.70
16521;DHT22;8373;48.110;11.522;2022-09-16T13:49:04;17.00;80.20
16521;DHT22;8373;48.110;11.522;2022-09-16T13:51:38;17.00;79.40
16521;DHT22;8373;48.110;11.522;2022-09-16T13:54:28;17.10;79.10
16521;DHT22;8373;48.110;11.522;2022-09-16T14:00:04;17.10;76.40
16521;DHT22;8373;48.110;11.522;2022-09-16T14:02:41;17.10;75.80
16521;DHT22;8373;48.110;11.522;2022-09-16T14:05:32;17.10;75.80
16521;DHT22;8373;48.110;11.522;2022-09-16T14:08:08;17.00;75.40
16521;DHT22;8373;48.110;11.522;2022-09-16T14:10:49;17.00;75.10
16521;DHT22;8373;48.110;11.522;2022-09-16T14:13:20;17.00;75.40
16521;DHT22;8373;48.110;11.522;2022-09-16T14:15:49;17.00;76.10
16521;DHT22;8373;48.110;11.522;2022-09-16T14:18:21;16.90;76.90
16521;DHT22;8373;48.110;11.522;2022-09-16T14:20:57;16.90;77.00
16521;DHT22;8373;48.110;11.522;2022-09-16T14:23:26;16.90;77.10
16521;DHT22;8373;48.110;11.522;2022-09-16T14:25:55;16.80;77.40
16521;DHT22;8373;48.110;11.522;2022-09-16T14:28:24;16.70;77.90
16521;DHT22;8373;48.110;11.522;2022-09-16T14:30:53;16.60;79.10
16521;DHT22;8373;48.110;11.522;2022-09-16T14:33:24;16.60;79.10
16521;DHT22;8373;48.110;11.522;2022-09-16T14:35:53;16.70;79.70
16521;DHT22;8373;48.110;11.522;2022-09-16T14:38:30;16.60;78.70
16521;DHT22;8373;48.110;11.522;2022-09-16T14:41:00;16.60;78.50
16521;DHT22;8373;48.110;11.522;2022-09-16T14:43:27;16.50;78.30
16521;DHT22;8373;48.110;11.522;2022-09-16T14:45:55;16.50;78.90
16521;DHT22;8373;48.110;11.522;2022-09-16T14:48:29;16.50;79.80
16521;DHT22;8373;48.110;11.522;2022-09-16T14:50:59;16.40;78.70
16521;DHT22;8373;48.110;11.522;2022-09-16T14:53:29;16.40;79.00
16521;DHT22;8373;48.110;11.522;2022-09-16T14:55:57;16.40;79.00
16521;DHT22;8373;48.110;11.522;2022-09-16T14:58:28;16.40;79.00
16521;DHT22;8373;48.110;11.522;2022-09-16T15:00:58;16.40;79.80
16521;DHT22;8373;48.110;11.522;2022-09-16T15:03:33;16.40;79.20
16521;DHT22;8373;48.110;11.522;2022-09-16T15:06:07;16.40;79.40
16521;DHT22;8373;48.110;11.522;2022-09-16T15:08:42;16.40;78.50
16521;DHT22;8373;48.110;11.522;2022-09-16T15:11:15;16.30;79.10
16521;DHT22;8373;48.110;11.522;2022-09-16T15:13:45;16.20;77.90
16521;DHT22;8373;48.110;11.522;2022-09-16T15:16:15;16.20;78.60
16521;DHT22;8373;48.110;11.522;2022-09-16T15:18:52;16.20;78.80
16521;DHT22;8373;48.110;11.522;2022-09-16T15:21:21;16.10;79.20
16521;DHT22;8373;48.110;11.522;2022-09-16T15:23:51;16.00;79.90
16521;DHT22;8373;48.110;11.522;2022-09-16T15:26:20;15.90;79.80
16521;DHT22;8373;48.110;11.522;2022-09-16T15:28:53;16.00;80.40
16521;DHT22;8373;48.110;11.522;2022-09-16T15:31:29;15.90;80.60
16521;DHT22;8373;48.110;11.522;2022-09-16T15:34:00;16.00;81.50
16521;DHT22;8373;48.110;11.522;2022-09-16T15:36:33;16.10;81.80
16521;DHT22;8373;48.110;11.522;2022-09-16T15:39:01;16.20;82.00
16521;DHT22;8373;48.110;11.522;2022-09-16T15:41:28;16.10;81.50
16521;DHT22;8373;48.110;11.522;2022-09-16T15:43:59;16.00;81.60
16521;DHT22;8373;48.110;11.522;2022-09-16T15:46:26;15.90;81.80
16521;DHT22;8373;48.110;11.522;2022-09-16T15:48:56;15.90;82.10
16521;DHT22;8373;48.110;11.522;2022-09-16T15:51:29;15.90;82.20
16521;DHT22;8373;48.110;11.522;2022-09-16T15:54:06;15.80;82.40
16521;DHT22;8373;48.110;11.522;2022-09-16T15:56:38;15.80;83.40
16521;DHT22;8373;48.110;11.522;2022-09-16T15:59:22;15.80;83.80
16521;DHT22;8373;48.110;11.522;2022-09-16T16:01:53;15.70;82.40
16521;DHT22;8373;48.110;11.522;2022-09-16T16:04:23;15.70;82.50
16521;DHT22;8373;48.110;11.522;2022-09-16T16:06:52;15.70;82.80
16521;DHT22;8373;48.110;11.522;2022-09-16T16:09:38;15.60;82.80
16521;DHT22;8373;48.110;11.522;2022-09-16T16:12:10;15.60;82.80
16521;DHT22;8373;48.110;11.522;2022-09-16T16:14:39;15.60;83.10
16521;DHT22;8373;48.110;11.522;2022-09-16T16:17:08;15.70;83.40
16521;DHT22;8373;48.110;11.522;2022-09-16T16:19:37;15.70;83.20
16521;DHT22;8373;48.110;11.522;2022-09-16T16:22:06;15.70;83.60
16521;DHT22;8373;48.110;11.522;2022-09-16T16:24:33;15.70;83.30
16521;DHT22;8373;48.110;11.522;2022-09-16T16:27:00;15.60;82.80
16521;DHT22;8373;48.110;11.522;2022-09-16T16:29:28;15.60;83.20
16521;DHT22;8373;48.110;11.522;2022-09-16T16:32:02;15.60;83.20
16521;DHT22;8373;48.110;11.522;2022-09-16T16:34:31;15.50;83.40
16521;DHT22;8373;48.110;11.522;2022-09-16T16:36:58;15.50;83.70
16521;DHT22;8373;48.110;11.522;2022-09-16T16:39:26;15.60;84.20
16521;DHT22;8373;48.110;11.522;2022-09-16T16:41:53;15.60;84.30
16521;DHT22;8373;48.110;11.522;2022-09-16T16:44:21;15.50;83.40
16521;DHT22;8373;48.110;11.522;2022-09-16T16:46:49;15.50;83.50
16521;DHT22;8373;48.110;11.522;2022-09-16T16:49:18;15.40;83.70
16521;DHT22;8373;48.110;11.522;2022-09-16T16:51:47;15.30;83.80
16521;DHT22;8373;48.110;11.522;2022-09-16T16:54:15;15.40;84.20
16521;DHT22;8373;48.110;11.522;2022-09-16T16:56:42;15.30;84.20
16521;DHT22;8373;48.110;11.522;2022-09-16T16:59:09;15.30;84.40
16521;DHT22;8373;48.110;11.522;2022-09-16T17:01:37;15.20;84.40
16521;DHT22;8373;48.110;11.522;2022-09-16T17:04:04;15.00;84.70
16521;DHT22;8373;48.110;11.522;2022-09-16T17:06:33;15.10;85.50
16521;DHT22;8373;48.110;11.522;2022-09-16T17:09:01;15.10;85.20
16521;DHT22;8373;48.110;11.522;2022-09-16T17:11:29;15.10;85.50
16521;DHT22;8373;48.110;11.522;2022-09-16T17:13:58;15.10;85.10
16521;DHT22;8373;48.110;11.522;2022-09-16T17:16:26;15.10;85.50
16521;DHT22;8373;48.110;11.522;2022-09-16T17:18:53;15.10;85.10
16521;DHT22;8373;48.110;11.522;2022-09-16T17:21:22;15.10;85.20
16521;DHT22;8373;48.110;11.522;2022-09-16T17:23:51;15.00;85.00
16521;DHT22;8373;48.110;11.522;2022-09-16T17:26:18;15.00;85.40
16521;DHT22;8373;48.110;11.522;2022-09-16T17:28:47;15.00;85.70
16521;DHT22;8373;48.110;11.522;2022-09-16T17:31:17;15.00;85.80
16521;DHT22;8373;48.110;11.522;2022-09-16T17:33:45;15.00;85.50
16521;DHT22;8373;48.110;11.522;2022-09-16T17:36:14;15.00;85.40
16521;DHT22;8373;48.110;11.522;2022-09-16T17:38:41;15.00;85.80
16521;DHT22;8373;48.110;11.522;2022-09-16T17:41:11;15.00;85.40
16521;DHT22;8373;48.110;11.522;2022-09-16T17:43:38;15.00;85.80
16521;DHT22;8373;48.110;11.522;2022-09-16T17:46:09;15.00;85.80
16521;DHT22;8373;48.110;11.522;2022-09-16T17:48:37;15.00;85.40
16521;DHT22;8373;48.110;11.522;2022-09-16T17:51:04;15.00;85.50
16521;DHT22;8373;48.110;11.522;2022-09-16T17:53:32;15.00;85.90
16521;DHT22;8373;48.110;11.522;2022-09-16T17:56:04;15.00;86.00
16521;DHT22;8373;48.110;11.522;2022-09-16T17:58:34;14.90;86.20
16521;DHT22;8373;48.110;11.522;2022-09-16T18:01:05;15.00;86.20
16521;DHT22;8373;48.110;11.522;2022-09-16T18:03:33;14.90;86.10
16521;DHT22;8373;48.110;11.522;2022-09-16T18:06:10;14.90;86.30
16521;DHT22;8373;48.110;11.522;2022-09-16T18:08:38;14.80;86.50
16521;DHT22;8373;48.110;11.522;2022-09-16T18:11:07;14.80;86.70
16521;DHT22;8373;48.110;11.522;2022-09-16T18:13:36;14.70;87.00
16521;DHT22;8373;48.110;11.522;2022-09-16T18:16:09;14.70;87.10
16521;DHT22;8373;48.110;11.522;2022-09-16T18:18:38;14.60;87.00
16521;DHT22;8373;48.110;11.522;2022-09-16T18:21:07;14.60;87.20
16521;DHT22;8373;48.110;11.522;2022-09-16T18:23:35;14.80;87.50
16521;DHT22;8373;48.110;11.522;2022-09-16T18:26:03;14.70;87.00
16521;DHT22;8373;48.110;11.522;2022-09-16T18:28:30;14.70;87.20
16521;DHT22;8373;48.110;11.522;2022-09-16T18:31:03;14.70;87.10
16521;DHT22;8373;48.110;11.522;2022-09-16T18:33:31;14.80;87.20
16521;DHT22;8373;48.110;11.522;2022-09-16T18:35:58;14.80;86.90
16521;DHT22;8373;48.110;11.522;2022-09-16T18:38:26;14.80;86.70
16521;DHT22;8373;48.110;11.522;2022-09-16T18:41:02;14.70;86.90
16521;DHT22;8373;48.110;11.522;2022-09-16T18:43:29;14.80;87.60
16521;DHT22;8373;48.110;11.522;2022-09-16T18:46:10;14.70;87.10
16521;DHT22;8373;48.110;11.522;2022-09-16T18:48:39;14.80;87.20
16521;DHT22;8373;48.110;11.522;2022-09-16T18:51:16;14.80;87.20
16521;DHT22;8373;48.110;11.522;2022-09-16T18:53:43;14.70;87.30
16521;DHT22;8373;48.110;11.522;2022-09-16T18:56:11;14.70;87.40
16521;DHT22;8373;48.110;11.522;2022-09-16T18:58:38;14.80;87.60
16521;DHT22;8373;48.110;11.522;2022-09-16T19:01:17;14.80;87.30
16521;DHT22;8373;48.110;11.522;2022-09-16T19:03:44;14.60;87.30
16521;DHT22;8373;48.110;11.522;2022-09-16T19:06:11;14.60;87.60
16521;DHT22;8373;48.110;11.522;2022-09-16T19:08:38;14.60;88.10
16521;DHT22;8373;48.110;11.522;2022-09-16T19:11:05;14.70;88.10
16521;DHT22;8373;48.110;11.522;2022-09-16T19:13:32;14.70;87.90
16521;DHT22;8373;48.110;11.522;2022-09-16T19:15:59;14.70;87.60
16521;DHT22;8373;48.110;11.522;2022-09-16T19:18:27;14.80;87.70
16521;DHT22;8373;48.110;11.522;2022-09-16T19:20:55;14.70;87.60
16521;DHT22;8373;48.110;11.522;2022-09-16T19:23:22;14.60;87.70
16521;DHT22;8373;48.110;11.522;2022-09-16T19:25:49;14.70;88.20
16521;DHT22;8373;48.110;11.522;2022-09-16T19:28:17;14.70;88.00
16521;DHT22;8373;48.110;11.522;2022-09-16T19:30:45;14.60;87.80
16521;DHT22;8373;48.110;11.522;2022-09-16T19:33:12;14.50;87.90
16521;DHT22;8373;48.110;11.522;2022-09-16T19:35:40;14.60;88.20
16521;DHT22;8373;48.110;11.522;2022-09-16T19:38:07;14.60;88.10
16521;DHT22;8373;48.110;11.522;2022-09-16T19:40:34;14.70;88.40
16521;DHT22;8373;48.110;11.522;2022-09-16T19:43:01;14.60;87.80
16521;DHT22;8373;48.110;11.522;2022-09-16T19:45:28;14.60;87.80
16521;DHT22;8373;48.110;11.522;2022-09-16T19:47:55;14.60;87.70
16521;DHT22;8373;48.110;11.522;2022-09-16T19:50:22;14.60;87.70
16521;DHT22;8373;48.110;11.522;2022-09-16T19:52:50;14.60;87.50
16521;DHT22;8373;48.110;11.522;2022-09-16T19:55:17;14.70;87.70
16521;DHT22;8373;48.110;11.522;2022-09-16T19:57:44;14.80;87.90
16521;DHT22;8373;48.110;11.522;2022-09-16T20:00:12;14.80;87.20
16521;DHT22;8373;48.110;11.522;2022-09-16T20:02:42;14.80;86.60
16521;DHT22;8373;48.110;11.522;2022-09-16T20:05:09;14.70;86.30
16521;DHT22;8373;48.110;11.522;2022-09-16T20:07:37;14.60;86.30